createdAt,value
2022-08-26T00:01:00.469Z,99649.42
2022-08-26T00:03:31.929Z,99646.15
2022-08-26T00:06:02.355Z,99640.41
2022-08-26T00:08:33.699Z,99640.41
2022-08-26T00:11:04.681Z,99648.45
2022-08-26T00:13:36.472Z,99643.22
2022-08-26T00:16:09.358Z,99646.15
2022-08-26T00:18:41.453Z,99646.08
2022-08-26T00:21:11.865Z,99646.08
2022-08-26T00:23:42.343Z,99651.73
2022-08-26T00:26:13.137Z,99651.73
2022-08-26T00:28:43.591Z,99648.45
2022-08-26T00:31:14.769Z,99644.38
2022-08-26T00:33:45.179Z,99644.38
2022-08-26T00:36:20.240Z,99643.31
2022-08-26T00:38:48.160Z,99643.66
2022-08-26T00:41:20.172Z,99643.66
2022-08-26T00:43:51.940Z,99641.48
2022-08-26T00:46:29.138Z,99637.13
2022-08-26T00:49:11.908Z,99638.39
2022-08-26T00:51:48.553Z,99638.08
2022-08-26T00:54:39.793Z,99634.95
2022-08-26T00:57:16.516Z,99627.89
2022-08-26T00:59:49.711Z,99630.94
2022-08-26T01:02:21.920Z,99630.94
2022-08-26T01:04:56.116Z,99631.34
2022-08-26T01:07:30.211Z,99629.73
2022-08-26T01:10:05.319Z,99625.61
2022-08-26T01:12:44.736Z,99625.61
2022-08-26T01:15:18.233Z,99624.95
2022-08-26T01:17:49.156Z,99626.52
2022-08-26T01:20:39.192Z,99626.52
2022-08-26T01:23:11.747Z,99619.83
2022-08-26T01:25:45.782Z,99619.83
2022-08-26T01:28:24.168Z,99624.64
2022-08-26T01:30:57.000Z,99624.64
2022-08-26T01:33:40.030Z,99625.81
2022-08-26T01:36:07.836Z,99625.81
2022-08-26T01:38:41.521Z,99620.34
2022-08-26T01:41:16.312Z,99619.63
2022-08-26T01:43:47.790Z,99619.30
2022-08-26T01:46:20.419Z,99621.56
2022-08-26T01:48:54.560Z,99625.89
2022-08-26T01:51:27.478Z,99625.30
2022-08-26T01:53:58.884Z,99625.30
2022-08-26T01:56:33.150Z,99620.39
2022-08-26T01:59:05.304Z,99628.13
2022-08-26T02:01:36.500Z,99623.17
2022-08-26T02:04:28.224Z,99616.02
2022-08-26T02:07:01.430Z,99613.39
2022-08-26T02:09:32.215Z,99607.20
2022-08-26T02:12:04.636Z,99615.44
2022-08-26T02:14:43.854Z,99615.44
2022-08-26T02:17:12.258Z,99606.34
2022-08-26T02:19:45.712Z,99616.21
2022-08-26T02:22:19.091Z,99616.21
2022-08-26T02:27:36.298Z,99624.41
2022-08-26T02:30:13.758Z,99625.36
2022-08-26T02:32:45.237Z,99622.20
2022-08-26T02:35:18.299Z,99623.05
2022-08-26T02:37:50.532Z,99623.05
2022-08-26T02:40:24.210Z,99622.08
2022-08-26T02:42:56.982Z,99622.08
2022-08-26T02:45:27.635Z,99617.61
2022-08-26T02:47:58.553Z,99623.37
2022-08-26T02:50:30.223Z,99630.20
2022-08-26T02:53:00.935Z,99626.77
2022-08-26T02:55:32.340Z,99636.89
2022-08-26T02:58:03.134Z,99637.09
2022-08-26T03:00:38.720Z,99643.39
2022-08-26T03:03:10.625Z,99645.95
2022-08-26T03:05:41.152Z,99643.94
2022-08-26T03:08:13.363Z,99641.59
2022-08-26T03:10:43.973Z,99641.59
2022-08-26T03:13:15.446Z,99640.57
2022-08-26T03:15:47.652Z,99640.95
2022-08-26T03:18:18.344Z,99645.45
2022-08-26T03:20:50.553Z,99645.45
2022-08-26T03:23:20.988Z,99641.59
2022-08-26T03:25:52.991Z,99641.84
2022-08-26T03:28:23.581Z,99642.56
2022-08-26T03:30:56.149Z,99644.29
2022-08-26T03:33:47.855Z,99645.45
2022-08-26T03:36:20.099Z,99636.63
2022-08-26T03:38:50.473Z,99636.63
2022-08-26T03:41:20.808Z,99640.70
2022-08-26T03:43:51.232Z,99639.92
2022-08-26T03:46:21.806Z,99647.71
2022-08-26T03:48:52.257Z,99647.92
2022-08-26T03:51:22.602Z,99647.92
2022-08-26T03:53:54.827Z,99653.73
2022-08-26T03:56:27.294Z,99653.73
2022-08-26T03:58:59.385Z,99657.08
2022-08-26T04:01:31.648Z,99662.02
2022-08-26T04:04:03.206Z,99662.02
2022-08-26T04:06:37.206Z,99662.75
2022-08-26T04:09:16.889Z,99656.09
2022-08-26T04:11:50.610Z,99651.35
2022-08-26T04:14:24.512Z,99651.55
2022-08-26T04:16:56.195Z,99655.25
2022-08-26T04:19:27.128Z,99645.66
2022-08-26T04:21:57.770Z,99659.00
2022-08-26T04:24:28.742Z,99659.00
2022-08-26T04:26:59.116Z,99662.05
2022-08-26T04:29:30.285Z,99667.59
2022-08-26T04:32:00.581Z,99667.59
2022-08-26T04:34:31.320Z,99664.38
2022-08-26T04:37:02.492Z,99671.84
2022-08-26T04:39:33.598Z,99658.05
2022-08-26T04:42:04.208Z,99659.90
2022-08-26T04:44:39.800Z,99659.90
2022-08-26T04:47:10.181Z,99658.37
2022-08-26T04:49:41.819Z,99658.37
2022-08-26T04:52:12.181Z,99662.92
2022-08-26T04:54:44.310Z,99661.35
2022-08-26T04:57:14.677Z,99661.35
2022-08-26T04:59:46.177Z,99665.33
2022-08-26T05:02:18.142Z,99671.19
2022-08-26T05:04:49.936Z,99671.19
2022-08-26T05:07:22.262Z,99672.09
2022-08-26T05:09:53.072Z,99664.41
2022-08-26T05:12:25.156Z,99661.76
2022-08-26T05:14:55.509Z,99662.30
2022-08-26T05:17:26.017Z,99662.30
2022-08-26T05:19:56.392Z,99651.98
2022-08-26T05:22:26.715Z,99652.63
2022-08-26T05:24:57.334Z,99655.41
2022-08-26T05:27:27.874Z,99655.41
2022-08-26T05:29:58.549Z,99659.34
2022-08-26T05:32:29.268Z,99671.56
2022-08-26T05:35:00.248Z,99671.56
2022-08-26T05:37:31.629Z,99665.57
2022-08-26T05:40:05.265Z,99664.29
2022-08-26T05:42:36.222Z,99665.14
2022-08-26T05:45:07.391Z,99665.14
2022-08-26T05:47:37.771Z,99671.58
2022-08-26T05:50:11.373Z,99679.79
2022-08-26T05:52:42.717Z,99679.27
2022-08-26T05:55:13.093Z,99687.23
2022-08-26T05:57:43.796Z,99687.23
2022-08-26T06:00:15.943Z,99696.59
2022-08-26T06:02:48.438Z,99696.59
2022-08-26T06:05:20.285Z,99697.05
2022-08-26T06:07:53.176Z,99701.36
2022-08-26T06:10:33.294Z,99706.69
2022-08-26T06:12:55.860Z,99706.69
2022-08-26T06:15:26.315Z,99712.45
2022-08-26T06:17:56.915Z,99712.45
2022-08-26T06:20:29.204Z,99711.60
2022-08-26T06:22:59.906Z,99721.08
2022-08-26T06:25:30.669Z,99721.08
2022-08-26T06:28:01.054Z,99726.59
2022-08-26T06:30:53.812Z,99716.98
2022-08-26T06:33:26.383Z,99716.98
2022-08-26T06:35:58.675Z,99725.52
2022-08-26T06:38:29.539Z,99714.78
2022-08-26T06:41:02.085Z,99717.61
2022-08-26T06:43:34.013Z,99736.20
2022-08-26T06:46:10.933Z,99736.20
2022-08-26T06:48:42.925Z,99723.46
2022-08-26T06:54:08.670Z,99717.56
2022-08-26T06:56:42.888Z,99723.48
2022-08-26T06:59:13.807Z,99729.00
2022-08-26T07:01:45.059Z,99725.16
2022-08-26T07:04:20.230Z,99723.47
2022-08-26T07:06:53.677Z,99720.19
2022-08-26T07:09:28.075Z,99728.11
2022-08-26T07:11:59.215Z,99718.41
2022-08-26T07:14:29.588Z,99718.86
2022-08-26T07:17:00.427Z,99726.67
2022-08-26T07:19:31.890Z,99719.66
2022-08-26T07:22:05.748Z,99719.66
2022-08-26T07:24:39.021Z,99720.73
2022-08-26T07:27:15.944Z,99707.55
2022-08-26T07:29:47.737Z,99712.61
2022-08-26T07:32:20.710Z,99704.39
2022-08-26T07:34:52.985Z,99721.13
2022-08-26T07:37:23.582Z,99700.21
2022-08-26T07:39:54.179Z,99704.56
2022-08-26T07:42:24.875Z,99704.56
2022-08-26T07:44:56.074Z,99703.66
2022-08-26T07:47:28.172Z,99709.45
2022-08-26T07:49:59.239Z,99696.23
2022-08-26T07:52:31.259Z,99696.23
2022-08-26T07:55:03.298Z,99689.02
2022-08-26T07:57:34.259Z,99700.70
2022-08-26T08:00:08.560Z,99703.53
2022-08-26T08:02:40.368Z,99690.30
2022-08-26T08:05:12.169Z,99690.30
2022-08-26T08:07:44.774Z,99699.22
2022-08-26T08:10:19.217Z,99703.81
2022-08-26T08:12:52.732Z,99691.44
2022-08-26T08:15:26.723Z,99700.94
2022-08-26T08:18:00.661Z,99701.81
2022-08-26T08:20:30.941Z,99698.64
2022-08-26T08:23:03.466Z,99702.61
2022-08-26T08:25:34.923Z,99701.67
2022-08-26T08:28:05.469Z,99706.33
2022-08-26T08:30:38.499Z,99702.50
2022-08-26T08:33:10.921Z,99702.50
2022-08-26T08:35:41.974Z,99699.58
2022-08-26T08:38:13.643Z,99699.47
2022-08-26T08:40:46.503Z,99706.73
2022-08-26T08:43:32.375Z,99699.52
2022-08-26T08:46:08.020Z,99699.52
2022-08-26T08:48:41.342Z,99707.00
2022-08-26T08:51:35.940Z,99707.00
2022-08-26T08:54:08.768Z,99706.39
2022-08-26T08:57:09.059Z,99706.39
2022-08-26T08:59:49.267Z,99713.43
2022-08-26T09:02:25.559Z,99698.39
2022-08-26T09:05:16.344Z,99693.22
2022-08-26T09:07:50.904Z,99697.92
2022-08-26T09:10:39.428Z,99697.92
2022-08-26T09:13:16.768Z,99705.81
2022-08-26T09:16:13.389Z,99705.81
2022-08-26T09:18:57.806Z,99704.71
2022-08-26T09:21:28.308Z,99690.30
2022-08-26T09:23:59.532Z,99701.33
2022-08-26T09:26:45.801Z,99699.70
2022-08-26T09:29:24.068Z,99702.55
2022-08-26T09:32:00.521Z,99702.55
2022-08-26T09:34:31.210Z,99701.04
2022-08-26T09:37:04.550Z,99701.04
2022-08-26T09:39:38.234Z,99700.82
2022-08-26T09:42:16.794Z,99699.72
2022-08-26T09:45:04.570Z,99693.28
2022-08-26T09:47:47.932Z,99701.91
2022-08-26T09:50:30.332Z,99689.74
2022-08-26T09:53:25.175Z,99681.45
2022-08-26T09:56:08.415Z,99681.45
2022-08-26T09:58:44.557Z,99677.89
2022-08-26T10:01:23.557Z,99684.47
2022-08-26T10:03:55.522Z,99684.47
2022-08-26T10:06:26.512Z,99685.03
2022-08-26T10:09:08.840Z,99682.92
2022-08-26T10:11:52.934Z,99682.92
2022-08-26T10:14:31.861Z,99689.03
2022-08-26T10:17:08.237Z,99682.11
2022-08-26T10:22:59.924Z,99681.02
2022-08-26T10:25:34.610Z,99687.08
2022-08-26T10:28:28.530Z,99687.08
2022-08-26T10:31:16.909Z,99682.66
2022-08-26T10:33:49.218Z,99686.27
2022-08-26T10:36:22.371Z,99686.72
2022-08-26T10:38:54.727Z,99676.78
2022-08-26T10:41:27.667Z,99687.38
2022-08-26T10:44:02.714Z,99687.38
2022-08-26T10:46:40.959Z,99681.21
2022-08-26T10:49:14.688Z,99682.18
2022-08-26T10:52:00.902Z,99682.09
2022-08-26T10:54:40.852Z,99682.09
2022-08-26T10:57:20.780Z,99677.86
2022-08-26T11:00:03.058Z,99673.30
2022-08-26T11:02:41.139Z,99673.30
2022-08-26T11:05:19.070Z,99675.02
2022-08-26T11:07:53.383Z,99665.95
2022-08-26T11:10:45.188Z,99669.94
2022-08-26T11:13:18.466Z,99669.94
2022-08-26T11:16:01.464Z,99662.95
2022-08-26T11:18:41.068Z,99667.88
2022-08-26T11:21:46.131Z,99661.08
2022-08-26T11:24:43.865Z,99661.47
2022-08-26T11:27:36.983Z,99661.47
2022-08-26T11:30:11.510Z,99655.12
2022-08-26T11:32:48.664Z,99653.02
2022-08-26T11:35:22.302Z,99654.62
2022-08-26T11:37:59.266Z,99659.22
2022-08-26T11:40:50.380Z,99664.13
2022-08-26T11:43:29.832Z,99664.13
2022-08-26T11:46:03.811Z,99669.67
2022-08-26T11:48:40.025Z,99669.67
2022-08-26T11:51:13.561Z,99671.73
2022-08-26T11:53:45.026Z,99674.34
2022-08-26T11:56:26.158Z,99674.45
2022-08-26T11:59:00.936Z,99674.45
2022-08-26T12:01:40.946Z,99684.42
2022-08-26T12:04:14.263Z,99681.30
2022-08-26T12:06:50.703Z,99674.64
2022-08-26T12:09:29.700Z,99678.77
2022-08-26T12:12:18.217Z,99674.13
2022-08-26T12:14:49.174Z,99670.30
2022-08-26T12:17:22.521Z,99664.61
2022-08-26T12:19:53.292Z,99657.25
2022-08-26T12:22:30.554Z,99657.25
2022-08-26T12:25:06.972Z,99653.22
2022-08-26T12:27:45.672Z,99642.77
2022-08-26T12:30:20.743Z,99645.35
2022-08-26T12:32:58.202Z,99645.35
2022-08-26T12:35:27.021Z,99645.03
2022-08-26T12:37:58.182Z,99644.38
2022-08-26T12:40:43.745Z,99641.91
2022-08-26T12:43:17.651Z,99635.53
2022-08-26T12:45:58.609Z,99628.37
2022-08-26T12:48:34.905Z,99628.37
2022-08-26T12:51:08.405Z,99629.84
2022-08-26T12:53:41.692Z,99629.52
2022-08-26T12:56:21.373Z,99631.53
2022-08-26T12:59:03.515Z,99631.53
2022-08-26T13:01:39.622Z,99637.03
2022-08-26T13:04:29.399Z,99637.03
2022-08-26T13:07:22.398Z,99624.27
2022-08-26T13:09:55.442Z,99620.36
2022-08-26T13:12:34.267Z,99620.36
2022-08-26T13:15:13.431Z,99619.11
2022-08-26T13:17:43.877Z,99624.31
2022-08-26T13:20:14.280Z,99619.70
2022-08-26T13:22:44.716Z,99619.70
2022-08-26T13:25:19.624Z,99608.16
2022-08-26T13:27:50.075Z,99609.67
2022-08-26T13:30:20.457Z,99609.06
2022-08-26T13:32:54.682Z,99609.06
2022-08-26T13:35:25.234Z,99608.79
2022-08-26T13:37:55.683Z,99612.97
2022-08-26T13:40:26.258Z,99612.97
2022-08-26T13:42:56.963Z,99618.31
2022-08-26T13:45:27.529Z,99617.63
2022-08-26T13:47:57.873Z,99617.63
2022-08-26T13:50:28.341Z,99614.48
2022-08-26T13:52:58.747Z,99625.74
2022-08-26T13:55:29.573Z,99628.46
2022-08-26T13:58:01.314Z,99627.64
2022-08-26T14:00:33.657Z,99624.23
2022-08-26T14:03:07.338Z,99624.23
2022-08-26T14:05:38.295Z,99617.69
2022-08-26T14:08:09.594Z,99620.38
2022-08-26T14:10:40.823Z,99621.81
2022-08-26T14:13:13.751Z,99623.54
2022-08-26T14:15:48.707Z,99623.54
2022-08-26T14:18:22.300Z,99622.73
2022-08-26T14:20:54.467Z,99621.20
2022-08-26T14:23:25.045Z,99622.31
2022-08-26T14:25:55.716Z,99619.05
2022-08-26T14:28:26.641Z,99619.05
2022-08-26T14:30:58.875Z,99610.69
2022-08-26T14:33:32.125Z,99613.88
2022-08-26T14:36:03.307Z,99612.55
2022-08-26T14:38:34.647Z,99612.55
2022-08-26T14:41:05.022Z,99612.36
2022-08-26T14:43:36.091Z,99613.41
2022-08-26T14:46:10.154Z,99613.41
2022-08-26T14:48:40.744Z,99610.95
2022-08-26T14:51:12.699Z,99614.68
2022-08-26T14:53:56.745Z,99607.81
2022-08-26T14:56:38.617Z,99607.81
2022-08-26T14:59:19.834Z,99611.58
2022-08-26T15:01:52.972Z,99606.02
2022-08-26T15:04:31.108Z,99613.86
2022-08-26T15:07:05.612Z,99611.38
2022-08-26T15:09:37.669Z,99611.38
2022-08-26T15:12:08.979Z,99620.99
2022-08-26T15:14:46.882Z,99620.59
2022-08-26T15:17:18.261Z,99620.59
2022-08-26T15:19:49.575Z,99619.09
2022-08-26T15:22:20.229Z,99624.62
2022-08-26T15:24:53.925Z,99619.64
2022-08-26T15:27:28.122Z,99620.20
2022-08-26T15:30:03.322Z,99620.20
2022-08-26T15:32:35.255Z,99622.86
2022-08-26T15:35:09.398Z,99622.86
2022-08-26T15:37:40.461Z,99621.96
2022-08-26T15:40:11.663Z,99626.69
2022-08-26T15:42:42.946Z,99626.69
2022-08-26T15:45:25.968Z,99621.66
2022-08-26T15:48:01.261Z,99627.80
2022-08-26T15:50:23.936Z,99627.53
2022-08-26T15:52:54.522Z,99627.53
2022-08-26T15:55:25.851Z,99638.98
2022-08-26T15:57:56.358Z,99645.73
2022-08-26T16:00:27.146Z,99644.83
2022-08-26T16:03:03.902Z,99653.47
2022-08-26T16:05:42.047Z,99653.47
2022-08-26T16:08:13.452Z,99652.16
2022-08-26T16:10:50.285Z,99654.91
2022-08-26T16:13:20.497Z,99653.97
2022-08-26T16:15:50.935Z,99653.97
2022-08-26T16:18:23.579Z,99654.97
2022-08-26T16:21:14.551Z,99657.73
2022-08-26T16:23:45.701Z,99658.78
2022-08-26T16:26:19.545Z,99658.78
2022-08-26T16:28:50.244Z,99658.13
2022-08-26T16:31:23.853Z,99658.13
2022-08-26T16:33:54.633Z,99659.71
2022-08-26T16:36:25.125Z,99668.55
2022-08-26T16:38:59.439Z,99668.55
2022-08-26T16:41:32.649Z,99660.77
2022-08-26T16:44:05.015Z,99660.77
2022-08-26T16:46:36.675Z,99664.28
2022-08-26T16:49:10.231Z,99659.91
2022-08-26T16:51:41.323Z,99661.38
2022-08-26T16:54:11.748Z,99652.70
2022-08-26T16:56:42.277Z,99645.45
2022-08-26T16:59:14.188Z,99644.48
2022-08-26T17:01:49.642Z,99644.48
2022-08-26T17:04:20.109Z,99641.00
2022-08-26T17:06:50.969Z,99641.00
2022-08-26T17:09:29.258Z,99643.91
2022-08-26T17:12:04.084Z,99644.41
2022-08-26T17:14:34.558Z,99644.65
2022-08-26T17:17:04.941Z,99642.36
2022-08-26T17:19:40.680Z,99642.36
2022-08-26T17:22:09.236Z,99646.06
2022-08-26T17:24:39.690Z,99645.75
2022-08-26T17:27:10.169Z,99640.70
2022-08-26T17:29:40.724Z,99637.23
2022-08-26T17:32:11.863Z,99637.23
2022-08-26T17:34:42.328Z,99646.23
2022-08-26T17:37:12.742Z,99643.20
2022-08-26T17:39:43.328Z,99643.20
2022-08-26T17:42:15.804Z,99639.93
2022-08-26T17:44:46.878Z,99639.88
2022-08-26T17:47:19.399Z,99639.88
2022-08-26T17:49:49.891Z,99641.47
2022-08-26T17:52:20.372Z,99648.38
2022-08-26T17:54:52.553Z,99648.38
2022-08-26T17:57:24.025Z,99644.92
2022-08-26T17:59:56.448Z,99656.09
2022-08-26T18:05:04.399Z,99639.59
2022-08-26T18:07:43.752Z,99626.94
2022-08-26T18:10:13.025Z,99626.94
2022-08-26T18:12:42.852Z,99634.42
2022-08-26T18:15:16.651Z,99627.23
2022-08-26T18:17:48.602Z,99624.50
2022-08-26T18:20:21.935Z,99623.28
2022-08-26T18:22:52.313Z,99632.66
2022-08-26T18:25:22.651Z,99628.36
2022-08-26T18:27:55.702Z,99628.36
2022-08-26T18:30:27.621Z,99625.14
2022-08-26T18:32:58.134Z,99620.08
2022-08-26T18:35:28.617Z,99627.00
2022-08-26T18:38:10.777Z,99627.00
2022-08-26T18:40:34.547Z,99623.39
2022-08-26T18:43:08.143Z,99615.72
2022-08-26T18:45:39.185Z,99607.31
2022-08-26T18:48:12.040Z,99607.31
2022-08-26T18:50:47.209Z,99612.39
2022-08-26T18:53:15.811Z,99608.78
2022-08-26T18:55:46.731Z,99608.78
2022-08-26T18:58:18.509Z,99602.34
2022-08-26T19:00:49.180Z,99609.86
2022-08-26T19:03:20.086Z,99612.70
2022-08-26T19:05:53.169Z,99615.58
2022-08-26T19:08:23.892Z,99605.08
2022-08-26T19:10:54.420Z,99599.22
2022-08-26T19:13:24.972Z,99599.22
2022-08-26T19:15:55.850Z,99600.77
2022-08-26T19:18:28.883Z,99600.77
2022-08-26T19:20:59.573Z,99601.31
2022-08-26T19:23:40.809Z,99595.45
2022-08-26T19:26:14.134Z,99587.70
2022-08-26T19:28:45.298Z,99595.26
2022-08-26T19:31:21.735Z,99589.89
2022-08-26T19:33:55.658Z,99589.89
2022-08-26T19:36:30.636Z,99578.27
2022-08-26T19:39:04.477Z,99572.53
2022-08-26T19:41:41.881Z,99581.06
2022-08-26T19:44:16.666Z,99577.20
2022-08-26T19:46:47.503Z,99581.80
2022-08-26T19:49:18.076Z,99584.68
2022-08-26T19:51:48.652Z,99580.52
2022-08-26T19:54:19.120Z,99580.52
2022-08-26T19:56:54.817Z,99582.33
2022-08-26T19:59:37.216Z,99568.33
2022-08-26T20:02:11.048Z,99568.33
2022-08-26T20:04:43.980Z,99562.95
2022-08-26T20:07:18.569Z,99561.23
2022-08-26T20:09:48.551Z,99561.30
2022-08-26T20:12:22.190Z,99561.30
2022-08-26T20:14:52.889Z,99565.91
2022-08-26T20:17:23.529Z,99566.27
2022-08-26T20:19:54.538Z,99563.08
2022-08-26T20:22:25.666Z,99563.08
2022-08-26T20:24:56.587Z,99563.08
2022-08-26T20:27:35.565Z,99565.09
2022-08-26T20:29:59.909Z,99559.62
2022-08-26T20:32:35.605Z,99553.52
2022-08-26T20:35:08.160Z,99553.52
2022-08-26T20:37:40.258Z,99557.42
2022-08-26T20:40:13.574Z,99548.84
2022-08-26T20:42:44.543Z,99546.49
2022-08-26T20:45:15.246Z,99543.58
2022-08-26T20:47:48.607Z,99544.12
2022-08-26T20:50:19.305Z,99544.12
2022-08-26T20:52:49.955Z,99539.14
2022-08-26T20:55:22.096Z,99540.06
2022-08-26T20:57:55.786Z,99543.09
2022-08-26T21:00:27.846Z,99543.09
2022-08-26T21:03:01.919Z,99535.56
2022-08-26T21:05:32.482Z,99536.78
2022-08-26T21:08:03.452Z,99534.20
2022-08-26T21:10:35.933Z,99526.14
2022-08-26T21:13:07.365Z,99526.14
2022-08-26T21:15:39.643Z,99525.75
2022-08-26T21:18:10.548Z,99529.02
2022-08-26T21:20:41.428Z,99529.02
2022-08-26T21:23:12.119Z,99528.66
2022-08-26T21:25:42.434Z,99519.43
2022-08-26T21:28:14.794Z,99521.75
2022-08-26T21:30:45.287Z,99515.23
2022-08-26T21:33:15.769Z,99515.23
2022-08-26T21:35:53.894Z,99513.89
2022-08-26T21:38:24.283Z,99513.89
2022-08-26T21:41:11.493Z,99513.13
2022-08-26T21:43:43.185Z,99511.56
2022-08-26T21:46:17.073Z,99508.34
2022-08-26T21:48:51.080Z,99512.44
2022-08-26T21:51:24.139Z,99512.44
2022-08-26T21:53:56.225Z,99508.40
2022-08-26T21:56:29.428Z,99507.02
2022-08-26T21:59:01.512Z,99507.61
2022-08-26T22:01:35.804Z,99507.61
2022-08-26T22:04:08.644Z,99502.20
2022-08-26T22:06:46.311Z,99499.55
2022-08-26T22:09:19.844Z,99499.55
2022-08-26T22:11:51.050Z,99491.89
2022-08-26T22:14:25.445Z,99491.89
2022-08-26T22:16:59.050Z,99489.75
2022-08-26T22:19:30.691Z,99489.75
2022-08-26T22:22:01.285Z,99484.50
2022-08-26T22:24:31.803Z,99484.50
2022-08-26T22:27:02.312Z,99488.13
2022-08-26T22:29:33.446Z,99488.13
2022-08-26T22:32:04.294Z,99489.35
2022-08-26T22:34:35.074Z,99486.10
2022-08-26T22:37:05.543Z,99485.91
2022-08-26T22:39:35.937Z,99481.87
2022-08-26T22:42:06.303Z,99484.64
2022-08-26T22:44:36.899Z,99477.42
2022-08-26T22:47:07.332Z,99477.42
2022-08-26T22:49:37.815Z,99472.83
2022-08-26T22:52:08.294Z,99472.83
2022-08-26T22:54:39.579Z,99474.61
2022-08-26T22:57:10.006Z,99474.61
2022-08-26T22:59:40.785Z,99477.09
2022-08-26T23:02:13.707Z,99472.25
2022-08-26T23:04:44.158Z,99482.93
2022-08-26T23:07:14.691Z,99482.93
2022-08-26T23:09:45.036Z,99467.80
2022-08-26T23:12:15.851Z,99467.80
2022-08-26T23:14:47.522Z,99474.67
2022-08-26T23:17:18.498Z,99474.31
2022-08-26T23:19:49.290Z,99474.31
2022-08-26T23:22:19.740Z,99477.73
2022-08-26T23:24:50.171Z,99474.91
2022-08-26T23:27:20.797Z,99478.53
2022-08-26T23:29:51.160Z,99471.25
2022-08-26T23:32:21.707Z,99466.91
2022-08-26T23:34:52.315Z,99466.91
2022-08-26T23:37:35.882Z,99468.09
2022-08-26T23:40:12.753Z,99457.83
2022-08-26T23:42:43.155Z,99452.22
2022-08-26T23:45:14.890Z,99452.22
2022-08-26T23:47:46.500Z,99458.86
2022-08-26T23:50:18.485Z,99460.66
2022-08-26T23:52:49.388Z,99451.19
2022-08-26T23:55:20.546Z,99454.98
2022-08-26T23:57:50.956Z,99454.98
